Search for airport 
image banner adimage banner adimage banner ad
image banner ad

NV20 - Topaz Ranch Heliport

Located in Wellington, United States

ICAO - NV20, IATA -

Data provided by Airmate  

General information

Coordinates: N40°49'28" W115°43'48"
Elevation is 5265 feet MSL.
 
View others Airports in Nevada

Operational data

Special qualification required
Current time UTC:
Current local time:
Weather at : KEKO - Elko Rgnl ( 5 km )
METAR: KEKO 130156Z AUTO 33008KT 10SM CLR 31/M01 A2999 RMK AO2 SLP100 T03061011
TAF: KEKO 122320Z 1300/1324 VRB06KT P6SM FEW200 FM131900 20007G17KT P6SM SKC
View NOTAMs / SUP AIP / TFR affecting this airport [VIEW]
Communications frequencies: [VIEW]

Runways:

Airport contact information

Address: Wellington United States

Satellite view of NV20